Main page
METAR-TAF:

METAR-TAF

Airports :

Penn Yan Airport

Penn Yan, New York, United States

latitude: 42-38-35N, longitude: 077-02-58W, elevation: 275 m

Current weather observation

The report was made 17 minutes ago, at 03:53 UTC
Calm wind
Temperature 23°C
Humidity 89%
Pressure 1011 hPa
Visibility: 16.1 km
Few clouds at a height of 8500 ft

METAR: KPEO 230353Z AUTO 00000KT 10SM FEW085 23/21 A2986 RMK AO2 SLP101 T02280211

Time: 00:10 (04:10 UTC)


TAF: missing

Weather observations and forecasts of more than 4000 airports (METAR and TAF reports).

The available stations are represented by yellow and red dots on the map.

Hover mouse over dot to see the name of the station.

Then click to see weather observations and forecasts.

To change the map : click on the green buttons with a black cross to zoom in, on the green button with a dash to zoom out, or on the green arrows for adjacent maps.


METAR-TAF: